sensor_id;sensor_type;location;lat;lon;timestamp;pressure;altitude;pressure_sealevel;temperature;humidity
36254;BME280;22291;52.250;21.228;2023-05-02T00:01:16;100335.52;;;7.76;50.89
36254;BME280;22291;52.250;21.228;2023-05-02T00:03:43;100336.36;;;7.74;51.20
36254;BME280;22291;52.250;21.228;2023-05-02T00:06:09;100324.02;;;7.71;51.27
36254;BME280;22291;52.250;21.228;2023-05-02T00:08:36;100327.84;;;7.67;51.43
36254;BME280;22291;52.250;21.228;2023-05-02T00:11:03;100317.97;;;7.60;51.45
36254;BME280;22291;52.250;21.228;2023-05-02T00:13:30;100325.22;;;7.59;51.68
36254;BME280;22291;52.250;21.228;2023-05-02T00:15:56;100321.50;;;7.58;52.01
36254;BME280;22291;52.250;21.228;2023-05-02T00:18:23;100312.36;;;7.56;51.98
36254;BME280;22291;52.250;21.228;2023-05-02T00:20:49;100314.28;;;7.53;52.04
36254;BME280;22291;52.250;21.228;2023-05-02T00:23:16;100313.50;;;7.50;52.28
36254;BME280;22291;52.250;21.228;2023-05-02T00:25:44;100312.73;;;7.47;52.35
36254;BME280;22291;52.250;21.228;2023-05-02T00:28:10;100308.18;;;7.45;52.44
36254;BME280;22291;52.250;21.228;2023-05-02T00:30:45;100309.02;;;7.43;52.56
36254;BME280;22291;52.250;21.228;2023-05-02T00:33:12;100305.27;;;7.41;52.65
36254;BME280;22291;52.250;21.228;2023-05-02T00:35:39;100300.44;;;7.41;52.72
36254;BME280;22291;52.250;21.228;2023-05-02T00:38:06;100300.72;;;7.39;52.87
36254;BME280;22291;52.250;21.228;2023-05-02T00:40:46;100302.86;;;7.40;52.81
36254;BME280;22291;52.250;21.228;2023-05-02T00:43:14;100305.82;;;7.41;52.96
36254;BME280;22291;52.250;21.228;2023-05-02T00:45:41;100300.72;;;7.39;53.21
36254;BME280;22291;52.250;21.228;2023-05-02T00:48:09;100298.82;;;7.40;53.48
36254;BME280;22291;52.250;21.228;2023-05-02T00:50:42;100297.52;;;7.37;53.33
36254;BME280;22291;52.250;21.228;2023-05-02T00:53:07;100299.16;;;7.36;53.25
36254;BME280;22291;52.250;21.228;2023-05-02T00:55:35;100293.50;;;7.35;53.29
36254;BME280;22291;52.250;21.228;2023-05-02T00:58:13;100287.10;;;7.31;53.23
36254;BME280;22291;52.250;21.228;2023-05-02T01:03:58;100283.06;;;7.31;53.50
36254;BME280;22291;52.250;21.228;2023-05-02T01:12:32;100273.38;;;7.29;53.61
36254;BME280;22291;52.250;21.228;2023-05-02T01:15:04;100280.89;;;7.33;53.55
36254;BME280;22291;52.250;21.228;2023-05-02T01:17:35;100273.65;;;7.31;53.82
36254;BME280;22291;52.250;21.228;2023-05-02T01:20:05;100274.17;;;7.30;53.88
36254;BME280;22291;52.250;21.228;2023-05-02T06:10:43;100197.34;;;12.71;50.74
36254;BME280;22291;52.250;21.228;2023-05-02T06:13:09;100193.81;;;12.80;50.53
36254;BME280;22291;52.250;21.228;2023-05-02T06:15:35;100186.90;;;12.91;50.17
36254;BME280;22291;52.250;21.228;2023-05-02T06:18:02;100166.68;;;12.95;49.95
36254;BME280;22291;52.250;21.228;2023-05-02T06:20:30;100198.43;;;13.18;49.71
36254;BME280;22291;52.250;21.228;2023-05-02T06:22:57;100197.88;;;13.33;49.75
36254;BME280;22291;52.250;21.228;2023-05-02T06:25:24;100197.84;;;13.48;49.54
36254;BME280;22291;52.250;21.228;2023-05-02T06:27:52;100201.56;;;13.64;49.22
36254;BME280;22291;52.250;21.228;2023-05-02T06:30:19;100194.17;;;13.80;49.16
36254;BME280;22291;52.250;21.228;2023-05-02T06:32:47;100203.10;;;14.01;48.91
36254;BME280;22291;52.250;21.228;2023-05-02T06:35:15;100196.58;;;14.21;48.66
36254;BME280;22291;52.250;21.228;2023-05-02T06:37:43;100197.09;;;14.42;48.59
36254;BME280;22291;52.250;21.228;2023-05-02T06:43:03;100203.08;;;14.99;48.15
36254;BME280;22291;52.250;21.228;2023-05-02T06:45:31;100213.37;;;15.30;47.55
36254;BME280;22291;52.250;21.228;2023-05-02T06:47:58;100208.78;;;15.59;47.45
36254;BME280;22291;52.250;21.228;2023-05-02T06:50:25;100208.31;;;15.82;46.91
36254;BME280;22291;52.250;21.228;2023-05-02T06:52:53;100201.34;;;15.91;45.97
36254;BME280;22291;52.250;21.228;2023-05-02T06:55:21;100204.36;;;16.01;46.00
36254;BME280;22291;52.250;21.228;2023-05-02T06:57:50;100211.09;;;16.20;45.89
36254;BME280;22291;52.250;21.228;2023-05-02T07:00:23;100197.94;;;16.38;46.13
36254;BME280;22291;52.250;21.228;2023-05-02T07:02:52;100194.19;;;16.68;45.46
36254;BME280;22291;52.250;21.228;2023-05-02T07:05:20;100208.33;;;16.86;44.72
36254;BME280;22291;52.250;21.228;2023-05-02T07:07:51;100205.80;;;17.03;44.75
36254;BME280;22291;52.250;21.228;2023-05-02T07:10:18;100199.52;;;17.18;43.67
36254;BME280;22291;52.250;21.228;2023-05-02T07:12:46;100195.80;;;17.27;43.90
36254;BME280;22291;52.250;21.228;2023-05-02T07:15:13;100201.14;;;17.39;43.71
36254;BME280;22291;52.250;21.228;2023-05-02T07:17:43;100209.86;;;17.54;43.63
36254;BME280;22291;52.250;21.228;2023-05-02T07:20:12;100204.05;;;17.66;43.10
36254;BME280;22291;52.250;21.228;2023-05-02T07:22:42;100201.95;;;17.79;43.22
36254;BME280;22291;52.250;21.228;2023-05-02T07:25:09;100200.40;;;18.07;43.27
36254;BME280;22291;52.250;21.228;2023-05-02T07:27:37;100206.77;;;18.34;41.91
36254;BME280;22291;52.250;21.228;2023-05-02T07:30:07;100206.45;;;18.49;42.19
36254;BME280;22291;52.250;21.228;2023-05-02T07:32:35;100225.97;;;18.71;40.99
36254;BME280;22291;52.250;21.228;2023-05-02T07:35:04;100215.77;;;18.81;40.60
36254;BME280;22291;52.250;21.228;2023-05-02T07:37:32;100208.23;;;18.97;41.05
36254;BME280;22291;52.250;21.228;2023-05-02T07:40:02;100205.23;;;19.19;40.83
36254;BME280;22291;52.250;21.228;2023-05-02T07:42:31;100215.84;;;19.34;38.93
36254;BME280;22291;52.250;21.228;2023-05-02T07:44:59;100212.82;;;19.43;39.86
36254;BME280;22291;52.250;21.228;2023-05-02T07:47:27;100200.37;;;19.66;39.30
36254;BME280;22291;52.250;21.228;2023-05-02T07:49:55;100204.86;;;19.78;39.29
36254;BME280;22291;52.250;21.228;2023-05-02T07:52:22;100208.64;;;20.00;39.75
36254;BME280;22291;52.250;21.228;2023-05-02T07:54:50;100209.63;;;20.19;38.49
36254;BME280;22291;52.250;21.228;2023-05-02T07:57:18;100204.36;;;20.20;38.17
36254;BME280;22291;52.250;21.228;2023-05-02T07:59:45;100198.41;;;20.34;38.65
36254;BME280;22291;52.250;21.228;2023-05-02T08:02:12;100203.81;;;20.65;38.97
36254;BME280;22291;52.250;21.228;2023-05-02T08:04:40;100213.56;;;20.79;37.60
36254;BME280;22291;52.250;21.228;2023-05-02T08:07:07;100210.09;;;20.86;37.29
36254;BME280;22291;52.250;21.228;2023-05-02T08:09:34;100200.77;;;21.01;37.03
36254;BME280;22291;52.250;21.228;2023-05-02T08:12:02;100207.86;;;21.06;36.73
36254;BME280;22291;52.250;21.228;2023-05-02T08:14:30;100208.70;;;21.14;36.43
36254;BME280;22291;52.250;21.228;2023-05-02T08:19:26;100200.23;;;21.40;35.16
36254;BME280;22291;52.250;21.228;2023-05-02T08:21:54;100195.58;;;21.52;35.85
36254;BME280;22291;52.250;21.228;2023-05-02T08:24:22;100187.83;;;21.79;35.78
36254;BME280;22291;52.250;21.228;2023-05-02T08:26:49;100195.34;;;21.89;34.35
36254;BME280;22291;52.250;21.228;2023-05-02T08:29:17;100192.03;;;21.97;35.12
36254;BME280;22291;52.250;21.228;2023-05-02T08:31:44;100208.02;;;22.23;35.08
36254;BME280;22291;52.250;21.228;2023-05-02T08:34:12;100201.78;;;22.40;34.51
36254;BME280;22291;52.250;21.228;2023-05-02T08:36:39;100209.08;;;22.60;34.42
36254;BME280;22291;52.250;21.228;2023-05-02T08:39:07;100211.06;;;22.60;32.96
36254;BME280;22291;52.250;21.228;2023-05-02T08:41:35;100210.45;;;22.67;33.81
36254;BME280;22291;52.250;21.228;2023-05-02T08:44:05;100215.19;;;22.70;33.94
36254;BME280;22291;52.250;21.228;2023-05-02T08:46:35;100209.47;;;22.94;34.25
36254;BME280;22291;52.250;21.228;2023-05-02T08:49:07;100208.69;;;23.19;34.22
36254;BME280;22291;52.250;21.228;2023-05-02T08:51:38;100217.88;;;23.42;33.00
36254;BME280;22291;52.250;21.228;2023-05-02T08:54:08;100217.31;;;23.43;32.91
36254;BME280;22291;52.250;21.228;2023-05-02T08:56:36;100216.87;;;23.44;33.74
36254;BME280;22291;52.250;21.228;2023-05-02T08:59:06;100223.50;;;23.76;34.07
36254;BME280;22291;52.250;21.228;2023-05-02T09:01:35;100210.52;;;24.13;33.37
36254;BME280;22291;52.250;21.228;2023-05-02T09:04:03;100222.42;;;24.66;33.61
36254;BME280;22291;52.250;21.228;2023-05-02T09:06:32;100218.05;;;25.14;32.93
36254;BME280;22291;52.250;21.228;2023-05-02T09:09:01;100212.58;;;25.29;31.56
36254;BME280;22291;52.250;21.228;2023-05-02T09:11:29;100219.47;;;25.10;30.90
36254;BME280;22291;52.250;21.228;2023-05-02T09:13:57;100203.64;;;25.11;31.89
36254;BME280;22291;52.250;21.228;2023-05-02T09:16:27;100204.61;;;25.35;31.63
36254;BME280;22291;52.250;21.228;2023-05-02T09:18:56;100205.44;;;25.66;31.45
36254;BME280;22291;52.250;21.228;2023-05-02T09:21:34;100205.50;;;25.78;29.80
36254;BME280;22291;52.250;21.228;2023-05-02T09:24:15;100214.75;;;25.49;29.51
36254;BME280;22291;52.250;21.228;2023-05-02T09:27:02;100211.77;;;25.32;29.88
36254;BME280;22291;52.250;21.228;2023-05-02T09:29:32;100199.02;;;25.39;31.06
36254;BME280;22291;52.250;21.228;2023-05-02T09:32:05;100219.80;;;25.58;30.52
36254;BME280;22291;52.250;21.228;2023-05-02T09:34:33;100207.05;;;25.79;30.83
36254;BME280;22291;52.250;21.228;2023-05-02T09:37:03;100220.08;;;25.82;30.01
36254;BME280;22291;52.250;21.228;2023-05-02T09:39:31;100213.95;;;25.48;30.08
36254;BME280;22291;52.250;21.228;2023-05-02T09:41:59;100238.47;;;25.08;30.01
36254;BME280;22291;52.250;21.228;2023-05-02T09:44:36;100228.88;;;24.75;30.69
36254;BME280;22291;52.250;21.228;2023-05-02T09:47:06;100224.67;;;24.56;30.81
36254;BME280;22291;52.250;21.228;2023-05-02T09:49:43;100234.15;;;24.51;32.00
36254;BME280;22291;52.250;21.228;2023-05-02T09:52:17;100234.15;;;24.51;31.19
36254;BME280;22291;52.250;21.228;2023-05-02T09:54:47;100238.53;;;24.49;31.82
36254;BME280;22291;52.250;21.228;2023-05-02T09:57:18;100241.98;;;24.67;31.84
36254;BME280;22291;52.250;21.228;2023-05-02T09:59:55;100242.59;;;24.63;31.00
36254;BME280;22291;52.250;21.228;2023-05-02T10:02:24;100229.48;;;24.74;32.13
36254;BME280;22291;52.250;21.228;2023-05-02T10:04:56;100242.39;;;24.88;31.11
36254;BME280;22291;52.250;21.228;2023-05-02T10:07:25;100249.16;;;24.54;31.48
36254;BME280;22291;52.250;21.228;2023-05-02T10:09:54;100252.12;;;24.21;31.75
36254;BME280;22291;52.250;21.228;2023-05-02T10:12:25;100252.30;;;23.85;32.08
36254;BME280;22291;52.250;21.228;2023-05-02T10:14:59;100257.66;;;23.59;32.39
36254;BME280;22291;52.250;21.228;2023-05-02T10:17:29;100258.72;;;23.28;32.86
36254;BME280;22291;52.250;21.228;2023-05-02T10:20:06;100268.41;;;23.14;33.57
36254;BME280;22291;52.250;21.228;2023-05-02T10:22:34;100266.23;;;23.06;33.84
36254;BME280;22291;52.250;21.228;2023-05-02T10:25:04;100270.18;;;23.09;34.52
36254;BME280;22291;52.250;21.228;2023-05-02T10:27:32;100266.20;;;23.17;34.27
36254;BME280;22291;52.250;21.228;2023-05-02T10:30:00;100270.13;;;23.38;34.32
36254;BME280;22291;52.250;21.228;2023-05-02T10:32:31;100271.47;;;23.59;34.72
36254;BME280;22291;52.250;21.228;2023-05-02T10:35:05;100274.02;;;24.20;34.51
36254;BME280;22291;52.250;21.228;2023-05-02T10:37:35;100282.89;;;24.23;33.15
36254;BME280;22291;52.250;21.228;2023-05-02T10:40:10;100272.18;;;23.89;32.95
36254;BME280;22291;52.250;21.228;2023-05-02T10:42:41;100280.56;;;23.49;33.54
36254;BME280;22291;52.250;21.228;2023-05-02T10:45:31;100284.16;;;23.28;34.17
36254;BME280;22291;52.250;21.228;2023-05-02T10:48:18;100290.05;;;23.12;34.13
36254;BME280;22291;52.250;21.228;2023-05-02T10:50:58;100291.42;;;22.83;34.56
36254;BME280;22291;52.250;21.228;2023-05-02T10:53:37;100288.80;;;22.52;35.00
36254;BME280;22291;52.250;21.228;2023-05-02T10:56:18;100291.31;;;22.29;35.62
36254;BME280;22291;52.250;21.228;2023-05-02T10:58:49;100294.55;;;22.07;36.09
36254;BME280;22291;52.250;21.228;2023-05-02T11:04:02;100316.83;;;21.80;37.23
36254;BME280;22291;52.250;21.228;2023-05-02T11:06:33;100302.53;;;21.57;37.50
36254;BME280;22291;52.250;21.228;2023-05-02T11:11:55;100320.13;;;21.21;38.31
36254;BME280;22291;52.250;21.228;2023-05-02T11:17:09;100344.25;;;20.73;39.15
36254;BME280;22291;52.250;21.228;2023-05-02T11:22:32;100352.87;;;20.24;40.15
36254;BME280;22291;52.250;21.228;2023-05-02T11:25:00;100353.17;;;20.02;40.56
36254;BME280;22291;52.250;21.228;2023-05-02T11:30:07;100380.98;;;19.60;41.05
36254;BME280;22291;52.250;21.228;2023-05-02T11:35:21;100384.03;;;19.19;41.64
36254;BME280;22291;52.250;21.228;2023-05-02T11:38:03;100402.66;;;19.00;42.30
36254;BME280;22291;52.250;21.228;2023-05-02T11:40:33;100413.37;;;18.85;44.34
36254;BME280;22291;52.250;21.228;2023-05-02T11:43:00;100420.20;;;18.56;45.41
36254;BME280;22291;52.250;21.228;2023-05-02T11:45:42;100424.06;;;18.26;46.56
36254;BME280;22291;52.250;21.228;2023-05-02T11:48:16;100429.25;;;17.96;47.74
36254;BME280;22291;52.250;21.228;2023-05-02T11:50:47;100438.08;;;17.73;48.37
36254;BME280;22291;52.250;21.228;2023-05-02T11:53:22;100442.07;;;17.53;49.87
36254;BME280;22291;52.250;21.228;2023-05-02T11:56:02;100449.60;;;17.34;50.54
36254;BME280;22291;52.250;21.228;2023-05-02T11:58:31;100447.31;;;17.14;52.01
36254;BME280;22291;52.250;21.228;2023-05-02T12:01:13;100450.34;;;17.03;53.47
36254;BME280;22291;52.250;21.228;2023-05-02T12:03:43;100447.71;;;17.07;55.28
36254;BME280;22291;52.250;21.228;2023-05-02T12:08:44;100458.92;;;17.17;56.24
36254;BME280;22291;52.250;21.228;2023-05-02T12:11:14;100460.84;;;17.23;55.81
36254;BME280;22291;52.250;21.228;2023-05-02T12:13:49;100458.20;;;17.27;56.32
36254;BME280;22291;52.250;21.228;2023-05-02T12:16:18;100453.36;;;17.36;55.81
36254;BME280;22291;52.250;21.228;2023-05-02T12:18:47;100457.84;;;17.50;56.75
36254;BME280;22291;52.250;21.228;2023-05-02T12:21:16;100455.39;;;17.55;55.57
36254;BME280;22291;52.250;21.228;2023-05-02T12:23:44;100452.22;;;17.69;55.53
36254;BME280;22291;52.250;21.228;2023-05-02T12:28:52;100460.91;;;17.87;54.89
36254;BME280;22291;52.250;21.228;2023-05-02T12:31:21;100465.84;;;17.97;54.45
36254;BME280;22291;52.250;21.228;2023-05-02T12:33:50;100464.51;;;18.07;54.11
36254;BME280;22291;52.250;21.228;2023-05-02T12:36:20;100458.80;;;18.22;54.68
36254;BME280;22291;52.250;21.228;2023-05-02T12:38:52;100458.19;;;18.67;54.19
36254;BME280;22291;52.250;21.228;2023-05-02T12:41:33;100457.06;;;18.98;53.30
36254;BME280;22291;52.250;21.228;2023-05-02T12:44:08;100461.59;;;19.10;53.04
36254;BME280;22291;52.250;21.228;2023-05-02T12:46:33;100466.41;;;19.36;53.55
36254;BME280;22291;52.250;21.228;2023-05-02T12:49:07;100467.04;;;19.85;52.83
36254;BME280;22291;52.250;21.228;2023-05-02T12:51:39;100467.06;;;20.25;51.80
36254;BME280;22291;52.250;21.228;2023-05-02T12:54:06;100465.72;;;20.56;50.62
36254;BME280;22291;52.250;21.228;2023-05-02T12:56:40;100470.15;;;20.77;50.07
36254;BME280;22291;52.250;21.228;2023-05-02T12:59:28;100470.72;;;20.94;49.50
36254;BME280;22291;52.250;21.228;2023-05-02T13:01:54;100466.33;;;21.06;48.15
36254;BME280;22291;52.250;21.228;2023-05-02T13:04:33;100464.77;;;21.05;47.34
36254;BME280;22291;52.250;21.228;2023-05-02T13:07:08;100477.55;;;21.07;47.27
36254;BME280;22291;52.250;21.228;2023-05-02T13:09:35;100472.16;;;21.01;47.02
36254;BME280;22291;52.250;21.228;2023-05-02T13:12:04;100477.95;;;21.09;47.37
36254;BME280;22291;52.250;21.228;2023-05-02T13:14:32;100479.03;;;21.18;47.06
36254;BME280;22291;52.250;21.228;2023-05-02T13:17:00;100480.06;;;21.23;46.45
36254;BME280;22291;52.250;21.228;2023-05-02T13:19:27;100487.72;;;21.20;46.01
36254;BME280;22291;52.250;21.228;2023-05-02T13:21:56;100484.83;;;21.09;45.96
36254;BME280;22291;52.250;21.228;2023-05-02T13:24:24;100487.63;;;20.96;46.52
36254;BME280;22291;52.250;21.228;2023-05-02T13:26:52;100487.47;;;20.81;46.55
36254;BME280;22291;52.250;21.228;2023-05-02T13:29:19;100493.23;;;20.59;46.60
36254;BME280;22291;52.250;21.228;2023-05-02T13:31:46;100491.93;;;20.36;46.00
36254;BME280;22291;52.250;21.228;2023-05-02T13:34:13;100493.65;;;20.18;45.82
36254;BME280;22291;52.250;21.228;2023-05-02T13:36:40;100488.45;;;19.99;46.10
36254;BME280;22291;52.250;21.228;2023-05-02T13:39:09;100493.03;;;19.91;46.04
36254;BME280;22291;52.250;21.228;2023-05-02T13:41:39;100497.23;;;19.85;45.82
36254;BME280;22291;52.250;21.228;2023-05-02T13:44:07;100493.59;;;19.68;45.34
36254;BME280;22291;52.250;21.228;2023-05-02T13:46:35;100499.84;;;19.55;45.68
36254;BME280;22291;52.250;21.228;2023-05-02T13:49:03;100495.58;;;19.48;46.08
36254;BME280;22291;52.250;21.228;2023-05-02T13:51:31;100499.39;;;19.53;46.44
36254;BME280;22291;52.250;21.228;2023-05-02T13:53:59;100495.55;;;19.67;46.49
36254;BME280;22291;52.250;21.228;2023-05-02T13:56:27;100496.41;;;19.94;46.12
36254;BME280;22291;52.250;21.228;2023-05-02T13:58:54;100495.42;;;20.06;44.59
36254;BME280;22291;52.250;21.228;2023-05-02T14:01:22;100489.67;;;20.15;44.19
36254;BME280;22291;52.250;21.228;2023-05-02T14:03:49;100491.27;;;20.16;43.79
36254;BME280;22291;52.250;21.228;2023-05-02T14:06:16;100491.64;;;20.28;43.75
36254;BME280;22291;52.250;21.228;2023-05-02T14:08:44;100489.23;;;20.40;42.72
36254;BME280;22291;52.250;21.228;2023-05-02T14:11:11;100497.87;;;20.38;41.96
36254;BME280;22291;52.250;21.228;2023-05-02T14:13:38;100495.95;;;20.42;42.15
36254;BME280;22291;52.250;21.228;2023-05-02T14:16:06;100498.84;;;20.53;41.75
36254;BME280;22291;52.250;21.228;2023-05-02T14:18:33;100500.33;;;20.60;41.42
36254;BME280;22291;52.250;21.228;2023-05-02T14:21:00;100503.39;;;20.68;40.95
36254;BME280;22291;52.250;21.228;2023-05-02T14:23:29;100505.13;;;20.67;40.63
36254;BME280;22291;52.250;21.228;2023-05-02T14:25:57;100496.27;;;20.77;40.63
36254;BME280;22291;52.250;21.228;2023-05-02T14:28:24;100502.48;;;20.87;40.47
36254;BME280;22291;52.250;21.228;2023-05-02T14:30:53;100507.57;;;20.89;40.13
36254;BME280;22291;52.250;21.228;2023-05-02T14:33:20;100497.80;;;20.92;39.72
36254;BME280;22291;52.250;21.228;2023-05-02T14:35:48;100501.92;;;20.92;39.53
36254;BME280;22291;52.250;21.228;2023-05-02T14:38:33;100506.83;;;20.92;39.19
36254;BME280;22291;52.250;21.228;2023-05-02T14:41:00;100503.03;;;20.87;39.03
36254;BME280;22291;52.250;21.228;2023-05-02T14:43:28;100504.74;;;20.82;38.86
36254;BME280;22291;52.250;21.228;2023-05-02T14:45:56;100505.48;;;20.79;38.86
36254;BME280;22291;52.250;21.228;2023-05-02T14:48:24;100511.27;;;20.70;38.81
36254;BME280;22291;52.250;21.228;2023-05-02T14:50:52;100510.31;;;20.59;38.67
36254;BME280;22291;52.250;21.228;2023-05-02T14:53:20;100512.20;;;20.55;38.90
36254;BME280;22291;52.250;21.228;2023-05-02T14:55:47;100519.45;;;20.53;39.12
36254;BME280;22291;52.250;21.228;2023-05-02T14:58:15;100509.36;;;20.47;39.07
36254;BME280;22291;52.250;21.228;2023-05-02T15:00:44;100512.34;;;20.35;38.81
36254;BME280;22291;52.250;21.228;2023-05-02T15:03:11;100509.95;;;20.20;38.99
36254;BME280;22291;52.250;21.228;2023-05-02T15:05:38;100511.36;;;20.10;39.06
36254;BME280;22291;52.250;21.228;2023-05-02T15:08:06;100511.03;;;20.02;39.21
36254;BME280;22291;52.250;21.228;2023-05-02T15:10:37;100512.35;;;19.99;39.40
36254;BME280;22291;52.250;21.228;2023-05-02T15:13:05;100515.46;;;19.97;39.39
36254;BME280;22291;52.250;21.228;2023-05-02T15:15:33;100512.05;;;19.90;39.12
36254;BME280;22291;52.250;21.228;2023-05-02T15:18:01;100512.86;;;19.81;39.20
36254;BME280;22291;52.250;21.228;2023-05-02T15:20:29;100511.01;;;19.75;39.12
36254;BME280;22291;52.250;21.228;2023-05-02T15:22:56;100508.27;;;19.56;39.29
36254;BME280;22291;52.250;21.228;2023-05-02T15:25:25;100514.16;;;19.45;39.42
36254;BME280;22291;52.250;21.228;2023-05-02T15:27:52;100511.79;;;19.33;39.54
36254;BME280;22291;52.250;21.228;2023-05-02T15:30:19;100513.16;;;19.23;39.46
36254;BME280;22291;52.250;21.228;2023-05-02T15:32:46;100509.99;;;19.12;39.64
36254;BME280;22291;52.250;21.228;2023-05-02T15:35:14;100499.19;;;18.99;39.54
36254;BME280;22291;52.250;21.228;2023-05-02T15:37:41;100502.15;;;18.91;39.81
36254;BME280;22291;52.250;21.228;2023-05-02T15:40:09;100501.19;;;18.83;39.84
36254;BME280;22291;52.250;21.228;2023-05-02T15:42:37;100498.28;;;18.76;39.95
36254;BME280;22291;52.250;21.228;2023-05-02T15:45:05;100500.36;;;18.73;40.15
36254;BME280;22291;52.250;21.228;2023-05-02T15:47:33;100501.46;;;18.68;40.15
36254;BME280;22291;52.250;21.228;2023-05-02T15:50:00;100501.00;;;18.66;40.38
36254;BME280;22291;52.250;21.228;2023-05-02T15:52:28;100506.87;;;18.64;40.41
36254;BME280;22291;52.250;21.228;2023-05-02T15:54:55;100505.27;;;18.63;40.45
36254;BME280;22291;52.250;21.228;2023-05-02T15:57:23;100500.66;;;18.58;40.41
36254;BME280;22291;52.250;21.228;2023-05-02T15:59:52;100494.87;;;18.53;40.44
36254;BME280;22291;52.250;21.228;2023-05-02T16:02:19;100502.66;;;18.51;40.60
36254;BME280;22291;52.250;21.228;2023-05-02T16:04:47;100499.69;;;18.50;40.88
36254;BME280;22291;52.250;21.228;2023-05-02T16:07:14;100497.53;;;18.50;40.67
36254;BME280;22291;52.250;21.228;2023-05-02T16:09:41;100497.89;;;18.48;40.79
36254;BME280;22291;52.250;21.228;2023-05-02T16:12:08;100498.25;;;18.46;40.95
36254;BME280;22291;52.250;21.228;2023-05-02T16:14:36;100498.13;;;18.49;41.03
36254;BME280;22291;52.250;21.228;2023-05-02T16:17:03;100497.53;;;18.50;40.89
36254;BME280;22291;52.250;21.228;2023-05-02T16:19:32;100499.62;;;18.46;40.95
36254;BME280;22291;52.250;21.228;2023-05-02T16:21:59;100500.20;;;18.46;40.90
36254;BME280;22291;52.250;21.228;2023-05-02T16:24:26;100503.88;;;18.44;40.85
36254;BME280;22291;52.250;21.228;2023-05-02T16:26:54;100509.91;;;18.43;40.94
36254;BME280;22291;52.250;21.228;2023-05-02T16:29:21;100508.54;;;18.43;40.93
36254;BME280;22291;52.250;21.228;2023-05-02T16:31:48;100513.59;;;18.41;40.91
36254;BME280;22291;52.250;21.228;2023-05-02T16:34:15;100516.45;;;18.39;40.74
36254;BME280;22291;52.250;21.228;2023-05-02T16:36:42;100519.26;;;18.33;40.87
36254;BME280;22291;52.250;21.228;2023-05-02T16:39:10;100520.47;;;18.25;41.04
36254;BME280;22291;52.250;21.228;2023-05-02T16:41:37;100520.16;;;18.21;41.24
36254;BME280;22291;52.250;21.228;2023-05-02T16:44:04;100524.97;;;18.18;41.31
36254;BME280;22291;52.250;21.228;2023-05-02T16:46:31;100523.60;;;18.18;41.46
36254;BME280;22291;52.250;21.228;2023-05-02T16:48:59;100522.94;;;18.15;41.38
36254;BME280;22291;52.250;21.228;2023-05-02T16:51:26;100532.66;;;18.12;41.43
36254;BME280;22291;52.250;21.228;2023-05-02T16:53:53;100530.98;;;18.07;41.47
36254;BME280;22291;52.250;21.228;2023-05-02T16:56:21;100541.27;;;18.04;41.76
36254;BME280;22291;52.250;21.228;2023-05-02T16:58:48;100539.38;;;17.99;41.64
36254;BME280;22291;52.250;21.228;2023-05-02T17:01:15;100537.48;;;17.93;41.74
36254;BME280;22291;52.250;21.228;2023-05-02T17:03:43;100536.94;;;17.87;41.68
36254;BME280;22291;52.250;21.228;2023-05-02T17:06:10;100537.52;;;17.81;42.05
36254;BME280;22291;52.250;21.228;2023-05-02T17:08:37;100541.33;;;17.76;42.01
36254;BME280;22291;52.250;21.228;2023-05-02T17:11:05;100540.22;;;17.71;42.09
36254;BME280;22291;52.250;21.228;2023-05-02T17:13:33;100539.31;;;17.67;42.35
36254;BME280;22291;52.250;21.228;2023-05-02T17:16:00;100538.78;;;17.61;42.45
36254;BME280;22291;52.250;21.228;2023-05-02T17:18:29;100542.01;;;17.57;42.55
36254;BME280;22291;52.250;21.228;2023-05-02T17:20:56;100540.31;;;17.52;42.82
36254;BME280;22291;52.250;21.228;2023-05-02T17:23:24;100536.47;;;17.47;42.87
36254;BME280;22291;52.250;21.228;2023-05-02T17:25:51;100541.95;;;17.41;42.86
36254;BME280;22291;52.250;21.228;2023-05-02T17:28:19;100538.11;;;17.36;43.00
36254;BME280;22291;52.250;21.228;2023-05-02T17:30:47;100539.73;;;17.31;43.05
36254;BME280;22291;52.250;21.228;2023-05-02T17:33:14;100545.23;;;17.25;43.36
36254;BME280;22291;52.250;21.228;2023-05-02T17:35:41;100542.52;;;17.18;43.76
36254;BME280;22291;52.250;21.228;2023-05-02T17:38:09;100548.47;;;17.08;43.92
36254;BME280;22291;52.250;21.228;2023-05-02T17:40:37;100546.77;;;17.04;44.09
36254;BME280;22291;52.250;21.228;2023-05-02T17:43:04;100547.16;;;16.96;44.45
36254;BME280;22291;52.250;21.228;2023-05-02T17:45:31;100556.48;;;16.89;44.42
36254;BME280;22291;52.250;21.228;2023-05-02T17:47:58;100551.94;;;16.80;44.69
36254;BME280;22291;52.250;21.228;2023-05-02T17:50:25;100554.67;;;16.74;44.65
36254;BME280;22291;52.250;21.228;2023-05-02T17:52:53;100556.17;;;16.66;44.81
36254;BME280;22291;52.250;21.228;2023-05-02T17:55:20;100553.56;;;16.57;44.99
36254;BME280;22291;52.250;21.228;2023-05-02T17:57:47;100569.94;;;16.51;45.44
36254;BME280;22291;52.250;21.228;2023-05-02T18:00:15;100561.43;;;16.40;45.54
36254;BME280;22291;52.250;21.228;2023-05-02T18:02:44;100563.80;;;16.29;45.61
36254;BME280;22291;52.250;21.228;2023-05-02T18:05:11;100563.91;;;16.20;46.12
36254;BME280;22291;52.250;21.228;2023-05-02T18:07:52;100566.98;;;16.13;46.06
36254;BME280;22291;52.250;21.228;2023-05-02T18:10:19;100571.98;;;16.04;46.17
36254;BME280;22291;52.250;21.228;2023-05-02T18:12:46;100566.63;;;15.96;46.51
36254;BME280;22291;52.250;21.228;2023-05-02T18:15:13;100577.06;;;15.87;46.72